Time;durP1;ratioP1;P1;durP2;ratioP2;P2;SDS_P1;SDS_P2;PMS_P1;PMS_P2;Temp;Humidity;BMP_temperature;BMP_pressure;BME280_temperature;BME280_humidity;BME280_pressure;Samples;Min_cycle;Max_cycle;Signal;HPM_P1;HPM_P2
2023/12/08 00:04:01;;;;;;;205.70;93.70;;;;;;;2.53;72.00;99387.36;234337;212;148428;-57
2023/12/08 00:09:04;;;;;;;222.40;94.30;;;;;;;2.50;72.22;99384.84;234362;214;138709;-58
2023/12/08 00:14:07;;;;;;;218.50;95.10;;;;;;;2.53;72.03;99379.51;233818;215;137537;-55
2023/12/08 00:19:10;;;;;;;223.60;93.50;;;;;;;2.47;72.07;99375.10;234514;214;147634;-56
2023/12/08 00:24:14;;;;;;;216.90;90.40;;;;;;;2.49;72.13;99369.28;234522;215;139383;-56
2023/12/08 00:29:20;;;;;;;212.00;91.80;;;;;;;2.57;72.05;99369.78;234485;215;138022;-56
2023/12/08 00:34:23;;;;;;;;;;;;;;;2.60;71.95;99363.23;234485;213;149040;-57
2023/12/08 00:39:27;;;;;;;211.40;91.80;;;;;;;2.66;71.76;99358.70;234111;214;138828;-55
2023/12/08 00:44:30;;;;;;;205.00;91.30;;;;;;;2.61;71.58;99363.73;234686;214;137419;-57
2023/12/08 00:49:33;;;;;;;200.60;89.80;;;;;;;2.54;71.79;99366.17;233720;212;147537;-58
2023/12/08 00:54:37;;;;;;;192.90;90.40;;;;;;;2.54;71.78;99371.25;234603;208;138694;-55
2023/12/08 00:59:40;;;;;;;183.30;85.60;;;;;;;2.54;71.75;99387.19;234621;214;136806;-56
2023/12/08 01:04:43;;;;;;;197.70;89.40;;;;;;;2.48;71.69;99397.33;234473;207;148060;-56
2023/12/08 01:09:47;;;;;;;185.60;85.40;;;;;;;2.41;72.04;99390.64;234436;214;138774;-56
2023/12/08 01:14:50;;;;;;;200.60;89.80;;;;;;;2.37;72.19;99392.66;233132;213;137026;-56
2023/12/08 01:19:53;;;;;;;197.50;87.30;;;;;;;2.36;72.39;99387.63;234482;215;147355;-57
2023/12/08 01:24:56;;;;;;;197.70;86.80;;;;;;;2.36;72.44;99383.23;234511;214;138800;-58
2023/12/08 01:29:59;;;;;;;199.10;89.40;;;;;;;2.41;72.43;99375.06;234724;214;138251;-57
2023/12/08 01:35:03;;;;;;;206.50;88.50;;;;;;;2.48;72.57;99371.05;234429;215;148305;-55
2023/12/08 01:40:07;;;;;;;209.50;89.90;;;;;;;2.58;72.50;99366.61;234496;215;154304;-58
2023/12/08 01:45:10;;;;;;;211.20;88.60;;;;;;;2.61;72.39;99369.16;234192;215;142196;-56
2023/12/08 01:50:14;;;;;;;211.80;87.20;;;;;;;2.61;72.31;99364.10;234695;208;147546;-57
2023/12/08 01:55:18;;;;;;;218.70;87.20;;;;;;;2.52;72.49;99371.84;234626;208;138613;-55
2023/12/08 02:00:21;;;;;;;199.80;85.80;;;;;;;2.45;72.71;99365.69;234837;214;137989;-57
2023/12/08 02:05:25;;;;;;;208.30;85.00;;;;;;;2.38;72.97;99366.03;234652;215;148609;-59
2023/12/08 02:10:29;;;;;;;211.70;88.00;;;;;;;2.31;73.07;99367.94;234016;215;141079;-57
2023/12/08 02:15:32;;;;;;;205.50;86.40;;;;;;;2.31;73.46;99370.92;234457;215;137764;-55
2023/12/08 02:20:35;;;;;;;222.80;87.80;;;;;;;2.33;73.55;99364.58;234408;215;147685;-58
2023/12/08 02:25:39;;;;;;;210.00;85.80;;;;;;;2.38;73.53;99361.48;234648;212;138984;-53
2023/12/08 02:30:42;;;;;;;217.00;91.70;;;;;;;2.51;73.21;99357.48;234573;215;139389;-57
2023/12/08 02:35:47;;;;;;;220.40;97.70;;;;;;;2.59;72.84;99361.67;234246;215;148352;-57
2023/12/08 02:40:50;;;;;;;222.80;95.20;;;;;;;2.61;72.71;99363.73;234423;215;138869;-58
2023/12/08 02:45:53;;;;;;;242.10;98.50;;;;;;;2.61;72.64;99363.55;234311;210;137249;-59
2023/12/08 02:50:56;;;;;;;262.50;99.80;;;;;;;2.63;72.60;99360.53;233766;214;147390;-58
2023/12/08 02:56:00;;;;;;;275.40;102.20;;;;;;;2.59;72.40;99363.06;234440;215;140511;-58
2023/12/08 03:01:03;;;;;;;263.80;99.80;;;;;;;2.56;72.51;99364.55;234473;214;137281;-57
2023/12/08 03:06:07;;;;;;;255.30;96.90;;;;;;;2.55;72.51;99368.80;233866;213;152063;-55
2023/12/08 03:11:10;;;;;;;256.20;94.40;;;;;;;2.52;72.71;99369.05;234550;214;139754;-57
2023/12/08 03:16:13;;;;;;;250.90;92.40;;;;;;;2.52;72.75;99377.63;234719;212;137269;-57
2023/12/08 03:21:21;;;;;;;247.40;90.30;;;;;;;2.49;73.10;99380.30;234572;215;147645;-57
2023/12/08 03:26:24;;;;;;;251.10;90.40;;;;;;;2.49;73.23;99378.90;234552;212;139576;-57
2023/12/08 03:31:30;;;;;;;266.60;89.90;;;;;;;2.47;73.20;99379.83;234278;215;137968;-55
2023/12/08 03:36:33;;;;;;;243.40;88.10;;;;;;;2.48;73.35;99381.73;234482;208;148140;-58
2023/12/08 03:41:36;;;;;;;256.30;92.80;;;;;;;2.57;73.27;99381.52;234805;214;138829;-56
2023/12/08 03:46:42;;;;;;;257.00;90.70;;;;;;;2.62;73.15;99380.88;234631;212;136749;-60
2023/12/08 03:51:45;;;;;;;;;;;;;;;2.62;72.96;99383.51;234470;212;148278;-57
2023/12/08 03:56:48;;;;;;;247.30;88.60;;;;;;;2.62;72.85;99378.45;234477;211;138958;-59
2023/12/08 04:01:52;;;;;;;223.10;84.60;;;;;;;2.61;72.78;99375.98;234470;213;137390;-58
2023/12/08 04:06:56;;;;;;;227.30;82.70;;;;;;;2.58;72.73;99378.33;234607;214;148418;-56
2023/12/08 04:11:59;;;;;;;216.30;79.90;;;;;;;2.57;72.65;99374.87;234591;214;138864;-55
2023/12/08 04:17:03;;;;;;;213.70;81.70;;;;;;;2.57;72.50;99369.77;234429;212;138902;-56
2023/12/08 04:22:06;;;;;;;217.70;85.50;;;;;;;2.56;72.43;99365.61;233473;213;147478;-56
2023/12/08 04:27:09;;;;;;;209.70;83.10;;;;;;;2.55;72.42;99358.63;234268;213;139273;-54
2023/12/08 04:32:12;;;;;;;200.30;76.90;;;;;;;2.56;72.34;99356.31;234656;214;137741;-55
2023/12/08 04:37:15;;;;;;;188.50;74.50;;;;;;;2.53;72.24;99353.92;234500;214;147699;-55
2023/12/08 04:42:18;;;;;;;203.50;79.00;;;;;;;2.48;72.20;99352.14;234702;215;139959;-57
2023/12/08 04:47:22;;;;;;;180.40;74.00;;;;;;;2.48;72.27;99347.76;233636;213;138088;-54
2023/12/08 04:52:26;;;;;;;183.70;74.30;;;;;;;2.55;71.96;99357.22;234590;214;147567;-59
2023/12/08 04:57:29;;;;;;;129.20;55.90;;;;;;;2.64;71.62;99357.35;234175;215;139547;-57
2023/12/08 05:02:33;;;;;;;100.90;51.40;;;;;;;2.58;71.37;99351.71;233356;211;136979;-58
2023/12/08 05:07:36;;;;;;;115.60;54.60;;;;;;;2.53;71.30;99354.46;234462;215;149163;-57
2023/12/08 05:12:39;;;;;;;127.70;59.60;;;;;;;2.50;71.35;99350.34;234608;213;140083;-59
2023/12/08 05:17:42;;;;;;;140.80;62.40;;;;;;;2.48;71.32;99348.98;234492;212;136587;-57
2023/12/08 05:22:45;;;;;;;165.90;69.80;;;;;;;2.44;71.31;99347.49;234611;212;147461;-55
2023/12/08 05:27:49;;;;;;;140.80;63.00;;;;;;;2.49;71.30;99348.98;234427;215;139209;-57
2023/12/08 05:32:52;;;;;;;161.80;68.80;;;;;;;2.42;71.19;99347.38;234412;215;138652;-58
2023/12/08 05:37:55;;;;;;;140.90;62.50;;;;;;;2.34;71.20;99338.80;234563;215;148371;-58
2023/12/08 05:42:59;;;;;;;133.20;58.50;;;;;;;2.25;71.35;99335.71;234527;214;140004;-57
2023/12/08 05:48:02;;;;;;;119.40;54.20;;;;;;;2.20;71.47;99325.15;234125;212;137261;-52
2023/12/08 05:53:06;;;;;;;137.90;58.40;;;;;;;2.20;71.35;99317.80;233960;213;147764;-57
2023/12/08 05:58:09;;;;;;;136.40;57.80;;;;;;;2.24;71.47;99332.23;234527;212;139041;-56
2023/12/08 06:03:13;;;;;;;138.60;60.20;;;;;;;2.26;71.14;99334.81;234636;212;138582;-56
2023/12/08 06:08:16;;;;;;;131.30;57.70;;;;;;;2.25;71.32;99342.02;234544;212;148211;-60
2023/12/08 06:13:19;;;;;;;145.40;62.30;;;;;;;2.27;71.14;99343.02;234490;215;140755;-58
2023/12/08 06:18:23;;;;;;;178.50;76.60;;;;;;;2.29;70.92;99342.96;234489;215;137924;-59
2023/12/08 06:23:27;;;;;;;237.60;114.40;;;;;;;2.34;71.34;99351.05;233816;212;148140;-58
2023/12/08 06:28:30;;;;;;;179.50;83.60;;;;;;;2.37;71.09;99349.08;234269;212;138807;-60
2023/12/08 06:33:33;;;;;;;233.70;113.40;;;;;;;2.27;71.04;99348.07;234382;215;137103;-59
2023/12/08 06:38:38;;;;;;;155.00;58.60;;;;;;;2.19;71.25;99341.27;234484;212;147242;-58
2023/12/08 06:43:41;;;;;;;160.20;60.70;;;;;;;2.17;71.01;99340.09;233712;212;138656;-57
2023/12/08 06:48:44;;;;;;;142.70;58.40;;;;;;;2.10;70.92;99333.59;234608;213;141131;-57
2023/12/08 06:53:48;;;;;;;119.10;51.80;;;;;;;2.03;71.01;99335.88;234516;212;148701;-59
2023/12/08 06:58:53;;;;;;;190.20;96.60;;;;;;;1.92;71.36;99339.78;233818;214;138712;-59
2023/12/08 07:03:56;;;;;;;119.90;50.70;;;;;;;2.07;72.48;99338.92;234415;215;137651;-59
2023/12/08 07:09:00;;;;;;;107.50;49.10;;;;;;;2.19;71.35;99336.70;234314;213;148271;-60
2023/12/08 07:14:04;;;;;;;105.80;48.50;;;;;;;2.22;70.91;99334.03;234552;213;138809;-61
2023/12/08 07:19:07;;;;;;;101.20;47.00;;;;;;;2.25;70.85;99335.34;234497;208;137687;-60
2023/12/08 07:24:11;;;;;;;102.90;47.70;;;;;;;2.26;70.76;99340.23;234496;215;147824;-60
2023/12/08 07:29:15;;;;;;;100.00;45.20;;;;;;;2.29;70.67;99341.04;234218;215;138903;-58
2023/12/08 07:34:18;;;;;;;97.00;44.70;;;;;;;2.28;70.41;99341.60;234428;215;137283;-59
2023/12/08 07:39:21;;;;;;;270.70;153.20;;;;;;;2.33;71.35;99339.02;234315;215;147507;-63
2023/12/08 07:44:24;;;;;;;116.40;49.70;;;;;;;2.57;71.49;99331.77;234476;213;139142;-63
2023/12/08 07:49:28;;;;;;;100.80;45.30;;;;;;;2.54;70.34;99338.32;234445;214;136762;-64
2023/12/08 07:54:32;;;;;;;96.10;44.90;;;;;;;2.50;70.15;99349.45;234675;214;147318;-64
2023/12/08 07:59:35;;;;;;;93.00;42.80;;;;;;;2.48;70.17;99351.77;234460;212;138836;-64
2023/12/08 08:04:38;;;;;;;96.80;43.60;;;;;;;2.47;70.18;99352.34;234445;213;137306;-63
2023/12/08 08:09:41;;;;;;;90.10;41.00;;;;;;;2.49;70.24;99353.32;234384;215;146591;-65
2023/12/08 08:14:45;;;;;;;86.70;40.60;;;;;;;2.51;69.90;99352.60;234354;211;139509;-63
2023/12/08 08:19:48;;;;;;;81.10;37.10;;;;;;;2.55;69.96;99361.78;234408;212;136574;-65
2023/12/08 08:24:52;;;;;;;80.10;37.60;;;;;;;2.60;69.93;99363.77;234466;212;148242;-62
2023/12/08 08:29:55;;;;;;;72.30;33.20;;;;;;;2.67;69.62;99352.20;234279;212;142287;-64
2023/12/08 08:34:58;;;;;;;69.10;31.90;;;;;;;2.78;69.46;99344.38;234417;207;136705;-62
2023/12/08 08:40:05;;;;;;;63.60;31.50;;;;;;;2.90;69.10;99335.48;234074;213;150262;-62
2023/12/08 08:45:09;;;;;;;66.00;30.30;;;;;;;3.00;68.76;99333.65;234473;213;139707;-62
2023/12/08 08:50:12;;;;;;;56.70;28.40;;;;;;;3.07;68.13;99328.02;234385;208;137994;-64
2023/12/08 08:55:16;;;;;;;52.10;23.80;;;;;;;3.12;67.80;99321.59;234463;211;147302;-64
2023/12/08 09:00:21;;;;;;;46.90;25.10;;;;;;;3.12;67.34;99321.77;234526;214;138725;-63
2023/12/08 09:05:24;;;;;;;;;;;;;;;3.11;66.78;99318.98;234482;214;137717;-62
2023/12/08 09:10:28;;;;;;;46.20;22.20;;;;;;;3.09;66.65;99319.02;234437;211;148174;-63
2023/12/08 09:15:32;;;;;;;53.60;27.80;;;;;;;3.00;66.52;99320.67;234412;215;139408;-62
2023/12/08 09:20:36;;;;;;;54.80;28.50;;;;;;;3.00;66.70;99321.90;234409;215;137502;-62
2023/12/08 09:25:39;;;;;;;53.90;29.00;;;;;;;3.00;66.38;99324.86;234319;213;147565;-65
2023/12/08 09:30:43;;;;;;;56.20;28.60;;;;;;;3.04;66.09;99321.10;234652;214;138774;-64
2023/12/08 09:35:46;;;;;;;49.90;27.80;;;;;;;3.07;65.99;99314.88;234491;215;145169;-65
2023/12/08 09:40:49;;;;;;;51.80;28.20;;;;;;;3.11;65.88;99309.69;234493;212;147502;-65
2023/12/08 09:45:54;;;;;;;252.20;147.30;;;;;;;3.17;66.25;99304.09;234394;212;140219;-66
2023/12/08 09:50:58;;;;;;;56.90;29.70;;;;;;;3.17;66.48;99296.57;234230;213;137867;-66
2023/12/08 09:56:03;;;;;;;58.70;32.90;;;;;;;3.11;65.85;99291.11;234186;208;148687;-65
2023/12/08 10:01:13;;;;;;;60.50;30.90;;;;;;;3.07;65.82;99274.58;234451;212;140595;-70
2023/12/08 10:06:19;;;;;;;56.60;29.10;;;;;;;3.03;66.21;99271.70;234435;212;137594;-67
2023/12/08 10:11:23;;;;;;;;;;;;;;;2.99;66.24;99260.95;234225;213;148336;-66
2023/12/08 10:16:26;;;;;;;41.60;22.20;;;;;;;2.94;66.35;99246.55;234370;208;139087;-66
2023/12/08 10:21:32;;;;;;;42.80;21.70;;;;;;;2.92;66.32;99237.67;234397;213;137569;-65
2023/12/08 10:26:35;;;;;;;39.20;21.20;;;;;;;2.86;66.44;99240.10;233804;212;148377;-65
2023/12/08 10:31:41;;;;;;;35.90;20.20;;;;;;;2.86;66.62;99245.37;233777;212;139651;-65
2023/12/08 10:36:45;;;;;;;37.30;20.40;;;;;;;2.90;66.48;99244.04;234600;213;136278;-66
2023/12/08 10:41:51;;;;;;;41.50;22.60;;;;;;;2.97;66.27;99233.66;234332;213;148098;-67
2023/12/08 10:46:57;;;;;;;36.40;20.20;;;;;;;2.98;66.20;99229.95;234447;214;139174;-65
2023/12/08 10:52:01;;;;;;;36.90;19.90;;;;;;;2.97;66.08;99239.44;234436;212;136677;-68
2023/12/08 10:57:05;;;;;;;38.10;19.90;;;;;;;2.95;66.14;99243.69;233531;208;147827;-66
2023/12/08 11:02:19;;;;;;;32.60;19.30;;;;;;;2.96;66.02;99242.64;234036;208;138929;-66
2023/12/08 11:07:31;;;;;;;37.70;20.00;;;;;;;2.92;66.17;99241.86;234434;208;136549;-66
2023/12/08 11:12:40;;;;;;;36.70;19.30;;;;;;;2.93;66.22;99244.67;234586;212;146284;-67
2023/12/08 11:17:52;;;;;;;31.60;19.10;;;;;;;2.91;66.16;99240.84;234421;208;138795;-66
2023/12/08 11:22:56;;;;;;;36.10;20.00;;;;;;;2.93;66.04;99233.60;234296;211;136517;-66
2023/12/08 11:28:21;;;;;;;33.70;19.80;;;;;;;2.91;66.04;99242.41;234382;212;148005;-66
2023/12/08 11:33:36;;;;;;;703.40;472.60;;;;;;;2.90;66.21;99248.59;234379;211;138871;-65
2023/12/08 11:38:39;;;;;;;34.90;19.90;;;;;;;2.99;66.54;99243.60;233526;212;137503;-66
2023/12/08 11:43:44;;;;;;;34.10;19.50;;;;;;;3.03;66.18;99236.30;234173;213;148263;-65
2023/12/08 11:48:52;;;;;;;31.00;19.00;;;;;;;3.10;66.23;99236.64;233651;211;138913;-66
2023/12/08 11:53:56;;;;;;;30.80;19.40;;;;;;;3.16;66.01;99235.95;234474;215;136654;-66
2023/12/08 11:59:00;;;;;;;33.80;19.10;;;;;;;3.17;65.78;99233.29;234408;215;147588;-66
2023/12/08 12:04:04;;;;;;;32.40;19.80;;;;;;;3.17;65.58;99228.73;233971;215;140219;-66
2023/12/08 12:09:08;;;;;;;34.80;20.40;;;;;;;3.17;65.66;99228.55;234175;212;138249;-66
2023/12/08 12:14:14;;;;;;;31.80;19.00;;;;;;;3.12;65.57;99222.90;233596;212;148355;-65
2023/12/08 12:19:17;;;;;;;32.90;21.00;;;;;;;3.08;65.76;99211.24;234182;207;138816;-66
2023/12/08 12:24:22;;;;;;;30.50;18.50;;;;;;;3.07;65.64;99207.97;234342;215;136446;-65
2023/12/08 12:29:26;;;;;;;31.30;19.70;;;;;;;3.02;65.60;99209.16;234329;208;147501;-66
2023/12/08 12:34:29;;;;;;;29.90;19.40;;;;;;;2.97;65.61;99201.23;234427;213;138940;-65
2023/12/08 12:39:34;;;;;;;30.70;18.80;;;;;;;2.95;65.62;99203.22;234363;212;137503;-65
2023/12/08 12:44:40;;;;;;;28.80;18.90;;;;;;;2.90;65.57;99208.82;234407;212;148155;-66
2023/12/08 12:50:00;;;;;;;30.50;19.50;;;;;;;2.84;65.62;99206.15;234518;207;139400;-65
2023/12/08 12:55:21;;;;;;;31.60;19.10;;;;;;;2.79;65.87;99205.95;234325;211;136553;-67
2023/12/08 13:00:35;;;;;;;39.40;23.60;;;;;;;2.76;65.87;99199.91;234423;215;148323;-67
2023/12/08 13:05:46;;;;;;;33.50;20.30;;;;;;;2.72;65.66;99191.09;234212;208;141389;-65
2023/12/08 13:10:50;;;;;;;32.00;20.00;;;;;;;2.70;65.85;99181.17;233955;213;136490;-66
2023/12/08 13:15:54;;;;;;;34.60;21.20;;;;;;;2.65;65.94;99186.91;234230;213;147492;-66
2023/12/08 13:20:57;;;;;;;33.50;20.80;;;;;;;2.60;66.26;99183.17;234251;215;139067;-65
2023/12/08 13:26:01;;;;;;;32.90;20.70;;;;;;;2.59;66.12;99188.80;234101;214;246292;-66
2023/12/08 13:31:05;;;;;;;30.60;20.10;;;;;;;2.56;66.18;99188.55;234348;213;147624;-66
2023/12/08 13:36:08;;;;;;;31.10;20.10;;;;;;;2.53;66.13;99192.32;234363;208;138677;-65
2023/12/08 13:41:11;;;;;;;31.20;20.90;;;;;;;2.49;66.15;99199.75;234157;208;137666;-66
2023/12/08 13:46:16;;;;;;;33.40;21.50;;;;;;;2.46;66.32;99205.47;234263;213;148139;-66
2023/12/08 13:51:19;;;;;;;30.80;21.20;;;;;;;2.46;66.29;99213.67;234309;213;138925;-65
2023/12/08 13:56:41;;;;;;;31.60;20.00;;;;;;;2.42;66.29;99216.95;234252;213;136690;-66
2023/12/08 14:01:45;;;;;;;30.20;19.20;;;;;;;2.31;66.25;99215.11;234315;213;148186;-66
2023/12/08 14:06:48;;;;;;;30.00;19.70;;;;;;;2.25;66.55;99218.61;234310;214;139464;-67
2023/12/08 14:11:51;;;;;;;30.10;19.20;;;;;;;2.20;66.52;99213.48;234248;209;136726;-65
2023/12/08 14:16:54;;;;;;;29.80;19.50;;;;;;;2.13;66.71;99219.06;233992;208;147709;-66
2023/12/08 14:21:58;;;;;;;29.80;20.30;;;;;;;2.09;66.54;99209.21;233977;208;138860;-65
2023/12/08 14:27:02;;;;;;;30.70;20.40;;;;;;;2.03;66.67;99205.17;233941;213;136934;-65
2023/12/08 14:32:06;;;;;;;42.50;27.20;;;;;;;1.98;66.87;99201.96;234052;213;148665;-65
2023/12/08 14:37:10;;;;;;;28.80;19.40;;;;;;;1.99;66.90;99205.77;234279;213;139603;-65
2023/12/08 14:42:14;;;;;;;31.10;20.00;;;;;;;2.02;66.85;99206.07;234462;214;138024;-65
2023/12/08 14:47:18;;;;;;;32.30;20.90;;;;;;;2.04;66.86;99207.92;234330;212;148064;-62
2023/12/08 14:52:22;;;;;;;31.60;20.00;;;;;;;2.02;66.66;99208.49;234261;212;139207;-63
2023/12/08 14:57:25;;;;;;;261.20;153.00;;;;;;;2.00;66.74;99208.73;234386;208;138252;-61
2023/12/08 15:02:28;;;;;;;35.80;22.50;;;;;;;2.07;67.04;99210.82;234305;208;147547;-64
2023/12/08 15:07:32;;;;;;;28.20;18.10;;;;;;;2.05;66.79;99218.58;234300;213;138910;-64
2023/12/08 15:12:36;;;;;;;30.60;19.20;;;;;;;1.98;66.97;99214.73;234397;208;138216;-63
2023/12/08 15:17:40;;;;;;;29.80;18.70;;;;;;;1.93;66.90;99211.88;234295;213;148111;-65
2023/12/08 15:22:43;;;;;;;45.90;26.80;;;;;;;1.88;67.05;99215.50;234227;212;140550;-64
2023/12/08 15:27:48;;;;;;;31.40;19.40;;;;;;;1.86;67.10;99216.58;234378;215;137873;-62
2023/12/08 15:32:51;;;;;;;26.80;18.30;;;;;;;1.83;67.36;99209.48;234353;212;146621;-62
2023/12/08 15:37:55;;;;;;;31.80;18.90;;;;;;;1.83;67.41;99208.61;234327;212;138882;-62
2023/12/08 15:42:58;;;;;;;30.40;19.90;;;;;;;1.84;67.46;99219.09;234204;208;137624;-62
2023/12/08 15:48:02;;;;;;;32.70;19.60;;;;;;;1.87;67.44;99220.59;234357;213;157984;-62
2023/12/08 15:53:06;;;;;;;28.20;18.70;;;;;;;1.87;67.39;99223.20;234243;213;138970;-63
2023/12/08 15:58:09;;;;;;;31.90;19.50;;;;;;;1.84;67.38;99226.63;234317;215;137674;-64
2023/12/08 16:03:14;;;;;;;31.70;19.60;;;;;;;1.82;67.39;99223.52;234401;212;147740;-64
2023/12/08 16:08:17;;;;;;;31.90;20.10;;;;;;;1.79;67.57;99221.33;234294;208;138997;-66
2023/12/08 16:13:20;;;;;;;28.80;19.20;;;;;;;1.78;67.65;99222.75;234247;208;138708;-62
2023/12/08 16:18:25;;;;;;;30.50;19.50;;;;;;;1.79;67.74;99222.19;234469;212;147391;-61
2023/12/08 16:23:28;;;;;;;29.30;19.50;;;;;;;1.77;67.62;99231.14;234405;213;138690;-58
2023/12/08 16:28:32;;;;;;;30.00;19.50;;;;;;;1.77;67.80;99225.39;234195;212;137873;-59
2023/12/08 16:33:35;;;;;;;56.10;36.80;;;;;;;1.86;68.23;99213.79;234238;213;148996;-60
2023/12/08 16:38:39;;;;;;;33.60;20.90;;;;;;;2.08;68.09;99210.09;234230;213;139815;-64
2023/12/08 16:43:42;;;;;;;33.60;21.40;;;;;;;2.20;67.32;99207.02;234302;214;137554;-64
2023/12/08 16:48:45;;;;;;;32.90;20.50;;;;;;;2.17;67.22;99202.35;234428;213;148190;-63
2023/12/08 16:53:49;;;;;;;99.70;70.50;;;;;;;2.16;67.64;99198.20;234369;214;139695;-62
2023/12/08 16:58:52;;;;;;;32.40;21.60;;;;;;;2.26;67.71;99184.80;234366;215;136983;-63
2023/12/08 17:03:56;;;;;;;34.60;21.40;;;;;;;2.24;67.13;99179.45;234318;213;149136;-63
2023/12/08 17:09:00;;;;;;;35.00;22.70;;;;;;;2.18;67.11;99176.26;234360;211;139437;-63
2023/12/08 17:14:03;;;;;;;34.70;21.60;;;;;;;2.13;67.25;99174.81;234366;212;136937;-63
2023/12/08 17:19:07;;;;;;;34.20;21.30;;;;;;;2.10;67.21;99177.48;234302;213;148024;-63
2023/12/08 17:24:10;;;;;;;34.80;22.40;;;;;;;2.16;68.08;99179.45;234338;213;138783;-63
2023/12/08 17:29:13;;;;;;;29.70;19.90;;;;;;;2.20;67.18;99182.52;234361;211;138106;-63
2023/12/08 17:34:16;;;;;;;30.60;19.10;;;;;;;2.09;67.23;99187.69;234256;214;147611;-63
2023/12/08 17:39:25;;;;;;;32.80;21.40;;;;;;;2.01;67.37;99185.25;234342;212;139707;-63
2023/12/08 17:44:33;;;;;;;158.60;96.30;;;;;;;1.98;67.66;99184.63;234098;208;140980;-62
2023/12/08 17:49:37;;;;;;;47.80;28.60;;;;;;;2.05;68.12;99189.19;234324;213;148709;-62
2023/12/08 17:54:41;;;;;;;32.70;21.20;;;;;;;1.94;67.64;99185.61;234348;208;139451;-62
2023/12/08 17:59:44;;;;;;;32.50;20.10;;;;;;;2.04;68.88;99181.50;234266;213;136780;-63
2023/12/08 18:04:48;;;;;;;32.30;19.00;;;;;;;2.11;68.02;99183.79;234360;212;147560;-62
2023/12/08 18:09:52;;;;;;;31.90;21.10;;;;;;;2.14;67.97;99190.36;234234;215;139076;-62
2023/12/08 18:14:56;;;;;;;35.20;22.70;;;;;;;2.19;67.74;99202.13;234335;211;136959;-60
2023/12/08 18:19:59;;;;;;;35.10;21.40;;;;;;;2.22;67.60;99204.50;234192;212;148567;-62
2023/12/08 18:25:04;;;;;;;37.90;22.30;;;;;;;2.21;67.54;99212.41;234305;214;140057;-62
2023/12/08 18:30:08;;;;;;;36.80;21.60;;;;;;;2.19;67.67;99216.12;234220;213;138028;-61
2023/12/08 18:35:11;;;;;;;41.00;23.90;;;;;;;2.15;67.89;99217.27;234396;212;148218;-61
2023/12/08 18:40:15;;;;;;;37.10;22.00;;;;;;;2.13;67.97;99217.87;234309;208;140440;-65
2023/12/08 18:45:18;;;;;;;36.90;23.30;;;;;;;2.15;68.00;99217.81;234373;212;138946;-65
2023/12/08 18:50:21;;;;;;;36.50;21.20;;;;;;;2.12;68.01;99225.41;234198;214;147302;-64
2023/12/08 18:55:24;;;;;;;37.10;22.10;;;;;;;2.08;68.21;99225.85;234101;213;139478;-62
2023/12/08 19:00:28;;;;;;;35.90;21.30;;;;;;;2.05;68.36;99225.05;234528;207;137152;-60
2023/12/08 19:05:35;;;;;;;36.80;22.00;;;;;;;2.02;68.43;99224.06;234385;212;147263;-58
2023/12/08 19:10:39;;;;;;;34.20;21.90;;;;;;;2.01;68.53;99226.20;234242;212;140116;-62
2023/12/08 19:15:42;;;;;;;35.70;22.30;;;;;;;2.05;68.58;99230.98;233493;207;136842;-62
2023/12/08 19:20:47;;;;;;;140.70;94.20;;;;;;;2.04;68.79;99231.73;234281;213;147815;-59
2023/12/08 19:25:51;;;;;;;108.10;68.30;;;;;;;2.37;71.77;99234.20;234247;212;145359;-59
2023/12/08 19:30:57;;;;;;;36.30;22.70;;;;;;;2.73;69.23;99232.39;234211;209;139169;-60
2023/12/08 19:36:02;;;;;;;40.00;24.00;;;;;;;2.68;67.78;99224.84;233991;215;284487;-62
2023/12/08 19:41:06;;;;;;;38.70;23.40;;;;;;;2.60;67.56;99216.62;234341;215;138729;-63
2023/12/08 19:46:09;;;;;;;42.60;25.50;;;;;;;2.50;67.50;99217.95;234370;215;136916;-58
2023/12/08 19:51:13;;;;;;;41.80;25.00;;;;;;;2.47;67.66;99216.80;234262;215;147458;-60
2023/12/08 19:56:16;;;;;;;45.40;27.20;;;;;;;2.41;67.64;99217.13;233941;214;139119;-58
2023/12/08 20:01:19;;;;;;;41.50;25.50;;;;;;;2.36;67.65;99219.89;234362;213;138761;-60
2023/12/08 20:06:23;;;;;;;44.70;27.30;;;;;;;2.30;68.00;99218.13;234391;215;147304;-60
2023/12/08 20:11:26;;;;;;;45.00;25.80;;;;;;;2.26;67.91;99213.33;234284;215;139350;-60
2023/12/08 20:16:29;;;;;;;42.50;25.10;;;;;;;2.26;68.06;99210.52;234498;214;136842;-60
2023/12/08 20:21:33;;;;;;;46.70;26.10;;;;;;;2.20;68.18;99215.76;234416;211;148039;-60
2023/12/08 20:26:36;;;;;;;44.50;26.90;;;;;;;2.13;68.35;99209.80;233508;213;138894;-61
2023/12/08 20:31:39;;;;;;;44.10;27.40;;;;;;;2.07;68.61;99212.04;234390;215;137861;-62
2023/12/08 20:36:45;;;;;;;47.80;26.60;;;;;;;2.07;68.80;99215.55;234515;215;148237;-61
2023/12/08 20:41:49;;;;;;;47.10;28.20;;;;;;;2.01;68.73;99216.05;234377;215;139231;-62
2023/12/08 20:46:54;;;;;;;44.50;27.70;;;;;;;1.97;68.88;99214.73;234302;215;137721;-58
2023/12/08 20:51:57;;;;;;;45.40;27.40;;;;;;;1.96;69.17;99209.55;234300;214;147680;-61
2023/12/08 20:57:00;;;;;;;292.90;213.50;;;;;;;1.96;69.23;99211.09;234198;215;276510;-62
2023/12/08 21:02:04;;;;;;;120.80;62.40;;;;;;;2.31;71.24;99214.25;234341;208;136979;-63
2023/12/08 21:07:07;;;;;;;42.00;24.60;;;;;;;2.65;70.68;99213.19;234353;215;147611;-63
2023/12/08 21:12:11;;;;;;;48.50;28.00;;;;;;;2.61;68.52;99221.86;234490;215;138829;-60
2023/12/08 21:17:14;;;;;;;51.70;29.90;;;;;;;2.58;68.23;99221.76;234058;215;137295;-57
2023/12/08 21:22:18;;;;;;;49.00;28.80;;;;;;;2.55;68.17;99220.80;234353;215;148137;-59
2023/12/08 21:27:22;;;;;;;51.10;29.80;;;;;;;2.51;68.08;99223.19;234140;215;140906;-58
2023/12/08 21:32:25;;;;;;;48.80;28.70;;;;;;;2.43;68.12;99226.21;234080;208;137892;-59
2023/12/08 21:37:29;;;;;;;47.10;26.70;;;;;;;2.41;68.25;99223.95;234095;215;149298;-60
2023/12/08 21:42:33;;;;;;;45.90;26.80;;;;;;;2.39;68.23;99229.10;233703;214;139263;-60
2023/12/08 21:47:39;;;;;;;48.70;26.80;;;;;;;2.39;68.37;99218.77;234361;215;137478;-60
2023/12/08 21:52:42;;;;;;;45.80;27.70;;;;;;;2.38;68.25;99218.08;233729;215;147998;-57
2023/12/08 21:57:46;;;;;;;43.10;25.60;;;;;;;2.35;68.10;99221.14;234169;215;139608;-60
2023/12/08 22:02:49;;;;;;;42.30;25.00;;;;;;;2.29;68.02;99226.54;234245;215;137420;-58
2023/12/08 22:07:53;;;;;;;39.30;24.20;;;;;;;2.22;67.91;99231.81;234393;215;147780;-58
2023/12/08 22:12:56;;;;;;;40.70;25.40;;;;;;;2.13;67.96;99229.73;234361;215;139434;-60
2023/12/08 22:17:59;;;;;;;49.80;29.70;;;;;;;2.09;68.27;99229.48;234481;215;136929;-58
2023/12/08 22:23:03;;;;;;;50.70;30.10;;;;;;;2.08;68.27;99229.71;234198;213;149505;-58
2023/12/08 22:28:08;;;;;;;46.10;27.10;;;;;;;2.04;68.25;99222.98;234280;215;138877;-59
2023/12/08 22:33:11;;;;;;;47.80;28.30;;;;;;;2.01;68.53;99219.73;234468;215;136879;-61
2023/12/08 22:38:15;;;;;;;48.00;28.30;;;;;;;2.07;68.62;99207.68;234350;215;147422;-62
2023/12/08 22:43:19;;;;;;;63.30;34.20;;;;;;;2.10;68.46;99208.64;234365;215;139312;-62
2023/12/08 22:48:22;;;;;;;80.40;36.70;;;;;;;2.13;68.57;99211.73;234429;215;137703;-60
2023/12/08 22:53:26;;;;;;;89.50;38.30;;;;;;;2.19;68.33;99207.73;234426;215;148267;-61
2023/12/08 22:58:29;;;;;;;99.30;42.40;;;;;;;2.25;68.13;99206.19;234318;214;139223;-61
2023/12/08 23:03:33;;;;;;;59.30;32.00;;;;;;;2.30;67.96;99211.45;234266;215;137205;-61
2023/12/08 23:08:36;;;;;;;58.20;31.60;;;;;;;2.28;67.74;99204.33;234074;212;147532;-60
2023/12/08 23:13:40;;;;;;;57.70;31.40;;;;;;;2.23;67.82;99204.30;234408;215;140019;-62